createdAt,value
2018-02-18T00:01:22.128Z,95.05
2018-02-18T00:03:52.963Z,94.93
2018-02-18T00:06:23.810Z,94.87
2018-02-18T00:08:54.634Z,94.96
2018-02-18T00:11:26.289Z,94.96
2018-02-18T00:13:59.165Z,95.00
2018-02-18T00:16:30.118Z,94.65
2018-02-18T00:19:00.950Z,94.88
2018-02-18T00:21:31.838Z,94.73
2018-02-18T00:24:02.715Z,94.88
2018-02-18T00:26:33.549Z,94.80
2018-02-18T00:29:04.348Z,94.70
2018-02-18T00:31:35.251Z,94.40
2018-02-18T00:34:06.122Z,94.51
2018-02-18T00:36:37.104Z,94.61
2018-02-18T00:39:07.968Z,94.48
2018-02-18T00:41:38.840Z,94.74
2018-02-18T00:44:09.717Z,94.60
2018-02-18T00:46:40.651Z,94.61
2018-02-18T00:49:13.845Z,94.48
2018-02-18T00:51:44.752Z,94.58
2018-02-18T00:54:18.702Z,94.66
2018-02-18T00:56:49.586Z,94.77
2018-02-18T00:59:20.451Z,94.65
2018-02-18T01:01:52.187Z,94.64
2018-02-18T01:04:23.066Z,94.66
2018-02-18T01:06:53.939Z,94.68
2018-02-18T01:09:24.838Z,94.44
2018-02-18T01:11:55.672Z,94.04
2018-02-18T01:14:26.509Z,94.21
2018-02-18T01:16:57.453Z,94.33
2018-02-18T01:19:28.296Z,94.23
2018-02-18T01:21:59.227Z,94.12
2018-02-18T01:24:30.114Z,94.10
2018-02-18T01:27:01.006Z,94.29
2018-02-18T01:29:36.345Z,94.42
2018-02-18T01:32:08.017Z,94.33
2018-02-18T01:34:38.946Z,94.49
2018-02-18T01:37:09.856Z,94.58
2018-02-18T01:39:40.671Z,94.79
2018-02-18T01:42:11.471Z,94.63
2018-02-18T01:44:42.299Z,94.40
2018-02-18T01:47:13.220Z,94.37
2018-02-18T01:49:44.076Z,94.37
2018-02-18T01:52:14.929Z,94.04
2018-02-18T01:54:45.794Z,93.97
2018-02-18T01:57:16.650Z,94.10
2018-02-18T01:59:47.549Z,93.92
2018-02-18T02:02:18.410Z,93.90
2018-02-18T02:07:50.226Z,93.58
2018-02-18T02:10:21.061Z,93.50
2018-02-18T02:12:51.891Z,93.49
2018-02-18T02:15:22.670Z,93.44
2018-02-18T02:17:53.570Z,92.89
2018-02-18T02:20:24.460Z,92.97
2018-02-18T02:23:00.625Z,92.96
2018-02-18T02:25:31.510Z,93.05
2018-02-18T02:28:02.398Z,93.09
2018-02-18T02:30:33.385Z,92.94
2018-02-18T02:33:04.228Z,92.71
2018-02-18T02:35:35.071Z,92.54
2018-02-18T02:38:06.060Z,92.81
2018-02-18T02:40:36.994Z,93.21
2018-02-18T02:43:07.882Z,93.10
2018-02-18T02:45:38.710Z,92.91
2018-02-18T02:48:09.563Z,92.75
2018-02-18T02:50:40.444Z,92.50
2018-02-18T02:53:11.324Z,92.89
2018-02-18T02:55:42.186Z,92.83
2018-02-18T02:58:13.056Z,93.30
2018-02-18T03:00:43.938Z,93.61
2018-02-18T03:03:14.801Z,93.31
2018-02-18T03:05:45.641Z,93.53
2018-02-18T03:08:16.484Z,93.35
2018-02-18T03:10:47.384Z,93.58
2018-02-18T03:13:18.302Z,93.30
2018-02-18T03:15:49.186Z,93.29
2018-02-18T03:18:20.062Z,93.24
2018-02-18T03:20:50.893Z,93.42
2018-02-18T03:23:21.758Z,93.38
2018-02-18T03:25:52.608Z,93.45
2018-02-18T03:28:23.514Z,93.57
2018-02-18T03:30:54.359Z,93.70
2018-02-18T03:33:25.242Z,93.82
2018-02-18T03:35:56.160Z,93.71
2018-02-18T03:38:27.020Z,93.89
2018-02-18T03:40:57.865Z,94.09
2018-02-18T03:43:28.730Z,94.12
2018-02-18T03:45:59.564Z,94.15
2018-02-18T03:48:30.418Z,94.17
2018-02-18T03:51:01.239Z,94.45
2018-02-18T03:53:32.134Z,94.46
2018-02-18T03:56:02.951Z,94.53
2018-02-18T03:58:33.790Z,94.49
2018-02-18T04:01:04.654Z,94.41
2018-02-18T04:03:35.503Z,94.56
2018-02-18T04:06:06.360Z,94.90
2018-02-18T04:08:37.240Z,95.07
2018-02-18T04:11:08.112Z,95.14
2018-02-18T04:13:38.961Z,95.30
2018-02-18T04:16:17.840Z,95.45
2018-02-18T04:18:48.703Z,95.63
2018-02-18T04:21:19.502Z,96.00
2018-02-18T04:23:50.341Z,96.26
2018-02-18T04:26:21.155Z,96.51
2018-02-18T04:28:52.017Z,96.55
2018-02-18T04:31:27.038Z,96.70
2018-02-18T04:33:57.887Z,96.86
2018-02-18T04:36:28.722Z,96.82
2018-02-18T04:38:59.592Z,96.91
2018-02-18T04:41:30.419Z,97.12
2018-02-18T04:44:01.318Z,96.92
2018-02-18T04:46:32.181Z,96.77
2018-02-18T04:49:03.104Z,96.86
2018-02-18T04:51:33.929Z,96.77
2018-02-18T04:54:06.624Z,96.77
2018-02-18T04:56:37.546Z,96.79
2018-02-18T04:59:08.398Z,96.82
2018-02-18T05:17:03.174Z,97.05
2018-02-18T05:19:34.040Z,97.14
2018-02-18T05:22:04.887Z,97.11
2018-02-18T05:24:35.827Z,96.98
2018-02-18T05:27:06.732Z,96.94
2018-02-18T05:29:37.613Z,96.86
2018-02-18T05:32:08.550Z,96.81
2018-02-18T05:34:39.423Z,96.68
2018-02-18T05:37:10.325Z,96.65
2018-02-18T05:39:41.171Z,96.62
2018-02-18T05:42:12.141Z,96.73
2018-02-18T05:44:42.994Z,96.78
2018-02-18T05:47:13.873Z,96.79
2018-02-18T05:49:45.320Z,96.78
2018-02-18T05:52:16.195Z,96.78
2018-02-18T05:54:47.044Z,96.88
2018-02-18T05:57:17.891Z,96.85
2018-02-18T05:59:48.862Z,96.82
2018-02-18T06:02:19.747Z,96.79
2018-02-18T06:04:50.809Z,96.80
2018-02-18T06:07:21.835Z,96.77
2018-02-18T06:09:52.681Z,96.67
2018-02-18T06:12:23.657Z,96.58
2018-02-18T06:14:55.683Z,96.54
2018-02-18T06:17:26.577Z,96.45
2018-02-18T06:19:58.172Z,96.38
2018-02-18T06:22:29.122Z,96.43
2018-02-18T06:25:00.702Z,96.64
2018-02-18T06:27:33.203Z,96.90
2018-02-18T06:30:04.647Z,97.10
2018-02-18T06:32:36.454Z,97.27
2018-02-18T06:35:07.694Z,97.40
2018-02-18T06:37:41.434Z,97.45
2018-02-18T06:40:12.488Z,97.64
2018-02-18T06:42:43.397Z,97.97
2018-02-18T06:45:14.217Z,98.18
2018-02-18T06:47:45.114Z,98.15
2018-02-18T06:50:15.964Z,98.00
2018-02-18T06:52:46.830Z,98.02
2018-02-18T06:55:17.681Z,97.92
2018-02-18T06:57:48.512Z,97.78
2018-02-18T07:00:19.333Z,97.66
2018-02-18T07:02:50.219Z,97.42
2018-02-18T07:05:21.022Z,96.27
2018-02-18T07:07:51.888Z,95.54
2018-02-18T07:10:22.744Z,95.00
2018-02-18T07:12:53.609Z,94.07
2018-02-18T07:15:24.487Z,92.64
2018-02-18T07:17:55.388Z,89.64
2018-02-18T07:20:26.306Z,88.00
2018-02-18T07:22:57.365Z,85.31
2018-02-18T07:25:28.195Z,84.34
2018-02-18T07:27:59.029Z,85.05
2018-02-18T07:30:29.931Z,83.42
2018-02-18T07:33:00.746Z,83.37
2018-02-18T07:35:31.659Z,84.05
2018-02-18T07:38:02.503Z,83.31
2018-02-18T07:40:33.348Z,83.34
2018-02-18T07:43:04.204Z,83.45
2018-02-18T07:45:35.042Z,83.27
2018-02-18T07:48:18.437Z,83.10
2018-02-18T07:50:49.286Z,83.23
2018-02-18T07:53:20.153Z,83.11
2018-02-18T07:55:51.015Z,83.34
2018-02-18T07:58:21.883Z,82.49
2018-02-18T08:00:52.728Z,82.22
2018-02-18T08:03:23.596Z,82.37
2018-02-18T08:05:54.445Z,81.13
2018-02-18T08:08:25.300Z,81.73
2018-02-18T08:10:56.136Z,81.85
2018-02-18T08:13:27.047Z,80.79
2018-02-18T08:15:57.882Z,79.89
2018-02-18T08:18:28.824Z,79.61
2018-02-18T08:20:59.694Z,78.85
2018-02-18T08:23:30.553Z,78.39
2018-02-18T08:26:01.447Z,77.37
2018-02-18T08:28:32.367Z,76.51
2018-02-18T08:31:03.214Z,78.26
2018-02-18T08:33:34.086Z,78.77
2018-02-18T08:36:04.954Z,78.24
2018-02-18T08:38:35.831Z,77.65
2018-02-18T08:41:06.663Z,77.98
2018-02-18T08:43:37.522Z,77.43
2018-02-18T08:46:08.467Z,78.18
2018-02-18T08:48:39.306Z,78.13
2018-02-18T08:51:10.205Z,76.97
2018-02-18T08:53:42.508Z,76.86
2018-02-18T08:56:13.446Z,76.77
2018-02-18T08:58:44.314Z,74.86
2018-02-18T09:01:15.210Z,74.28
2018-02-18T09:03:46.149Z,73.11
2018-02-18T09:06:16.999Z,72.08
2018-02-18T09:08:47.907Z,75.63
2018-02-18T09:11:18.779Z,75.89
2018-02-18T09:13:49.647Z,75.09
2018-02-18T09:16:20.553Z,73.84
2018-02-18T09:18:51.418Z,73.59
2018-02-18T09:21:22.253Z,74.00
2018-02-18T09:23:53.131Z,72.49
2018-02-18T09:26:23.983Z,71.99
2018-02-18T09:28:54.882Z,72.34
2018-02-18T09:31:25.734Z,69.63
2018-02-18T09:33:56.590Z,68.54
2018-02-18T09:36:27.441Z,69.63
2018-02-18T09:38:58.343Z,68.32
2018-02-18T09:41:29.170Z,68.05
2018-02-18T09:44:00.064Z,66.54
2018-02-18T09:46:30.901Z,66.96
2018-02-18T09:49:01.809Z,66.83
2018-02-18T09:51:32.649Z,64.99
2018-02-18T09:54:03.505Z,64.42
2018-02-18T09:56:34.331Z,60.27
2018-02-18T09:59:05.166Z,59.59
2018-02-18T10:01:35.997Z,61.47
2018-02-18T10:04:06.826Z,60.90
2018-02-18T10:06:37.662Z,61.74
2018-02-18T10:09:08.506Z,62.94
2018-02-18T10:11:39.342Z,64.40
2018-02-18T10:14:10.220Z,66.05
2018-02-18T10:16:41.055Z,63.55
2018-02-18T10:19:11.937Z,63.34
2018-02-18T10:21:42.774Z,62.16
2018-02-18T10:24:13.628Z,61.04
2018-02-18T10:26:44.474Z,59.39
2018-02-18T10:29:15.322Z,57.60
2018-02-18T10:31:46.134Z,56.84
2018-02-18T10:34:16.968Z,58.29
2018-02-18T10:36:47.788Z,58.09
2018-02-18T10:39:18.600Z,58.05
2018-02-18T10:41:49.448Z,60.45
2018-02-18T10:44:20.321Z,58.97
2018-02-18T10:46:51.156Z,56.27
2018-02-18T10:49:22.038Z,54.90
2018-02-18T10:51:52.894Z,55.01
2018-02-18T10:54:23.758Z,57.08
2018-02-18T10:56:54.607Z,55.67
2018-02-18T10:59:25.448Z,56.15
2018-02-18T11:01:56.285Z,56.56
2018-02-18T11:04:27.219Z,55.55
2018-02-18T11:06:58.064Z,55.82
2018-02-18T11:09:28.947Z,57.02
2018-02-18T11:11:59.740Z,61.25
2018-02-18T11:14:30.650Z,60.33
2018-02-18T11:17:01.494Z,57.51
2018-02-18T11:19:32.331Z,57.65
2018-02-18T11:22:03.166Z,56.66
2018-02-18T11:24:34.010Z,56.26
2018-02-18T11:27:05.780Z,56.47
2018-02-18T11:29:36.673Z,57.50
2018-02-18T11:32:07.553Z,58.66
2018-02-18T11:34:38.475Z,58.74
2018-02-18T11:37:09.336Z,62.79
2018-02-18T11:39:40.213Z,60.12
2018-02-18T11:42:11.107Z,60.46
2018-02-18T11:44:42.026Z,60.14
2018-02-18T11:47:12.878Z,62.04
2018-02-18T11:49:43.754Z,65.11
2018-02-18T11:52:14.647Z,63.55
2018-02-18T11:54:45.456Z,65.39
2018-02-18T11:57:16.342Z,64.36
2018-02-18T11:59:48.248Z,63.06
2018-02-18T12:02:19.106Z,63.79
2018-02-18T12:04:49.964Z,66.20
2018-02-18T12:07:20.841Z,65.92
2018-02-18T12:09:51.848Z,63.76
2018-02-18T12:12:22.785Z,63.57
2018-02-18T12:14:53.654Z,62.75
2018-02-18T12:17:24.544Z,64.01
2018-02-18T12:19:55.450Z,65.91
2018-02-18T12:22:26.345Z,64.38
2018-02-18T12:24:57.180Z,65.16
2018-02-18T12:27:27.997Z,65.45
2018-02-18T12:29:58.836Z,61.22
2018-02-18T12:32:29.621Z,63.09
2018-02-18T12:35:00.518Z,63.19
2018-02-18T12:37:31.356Z,63.92
2018-02-18T12:40:02.210Z,63.21
2018-02-18T12:42:33.019Z,60.19
2018-02-18T12:45:03.878Z,62.13
2018-02-18T12:47:34.693Z,61.96
2018-02-18T12:50:05.628Z,60.07
2018-02-18T12:52:36.870Z,60.66
2018-02-18T12:55:08.495Z,61.89
2018-02-18T12:57:39.390Z,63.36
2018-02-18T13:00:10.271Z,62.11
2018-02-18T13:02:48.117Z,65.04
2018-02-18T13:05:18.972Z,61.76
2018-02-18T13:07:49.812Z,61.54
2018-02-18T13:10:20.624Z,63.79
2018-02-18T13:12:51.407Z,62.83
2018-02-18T13:15:22.327Z,59.78
2018-02-18T13:17:53.169Z,59.92
2018-02-18T13:20:24.057Z,58.92
2018-02-18T13:22:54.923Z,59.31
2018-02-18T13:25:25.774Z,60.90
2018-02-18T13:27:56.637Z,64.85
2018-02-18T13:30:27.482Z,65.89
2018-02-18T13:32:58.352Z,65.51
2018-02-18T13:35:29.239Z,66.51
2018-02-18T13:38:00.072Z,67.63
2018-02-18T13:40:30.904Z,65.38
2018-02-18T13:43:01.880Z,67.58
2018-02-18T13:45:32.691Z,69.15
2018-02-18T13:48:03.535Z,68.86
2018-02-18T13:50:34.440Z,66.25
2018-02-18T13:53:05.241Z,67.52
2018-02-18T13:55:36.124Z,68.46
2018-02-18T13:58:06.979Z,63.39
2018-02-18T14:00:37.852Z,59.64
2018-02-18T14:03:09.896Z,57.05
2018-02-18T14:05:40.719Z,53.38
2018-02-18T14:08:11.599Z,50.03
2018-02-18T14:10:42.437Z,48.70
2018-02-18T14:13:13.347Z,48.15
2018-02-18T14:15:45.242Z,49.39
2018-02-18T14:18:16.068Z,47.76
2018-02-18T14:20:47.032Z,45.70
2018-02-18T14:23:17.870Z,49.57
2018-02-18T14:25:49.570Z,49.12
2018-02-18T14:28:20.398Z,52.63
2018-02-18T14:30:51.289Z,49.61
2018-02-18T14:33:22.122Z,53.38
2018-02-18T14:35:53.013Z,57.14
2018-02-18T14:38:23.871Z,59.92
2018-02-18T14:40:54.795Z,58.78
2018-02-18T14:43:37.918Z,60.11
2018-02-18T14:46:21.203Z,64.84
2018-02-18T14:49:04.384Z,65.28
2018-02-18T14:51:47.660Z,66.84
2018-02-18T14:54:28.486Z,64.60
2018-02-18T15:00:06.303Z,61.22
2018-02-18T15:02:37.161Z,63.02
2018-02-18T15:05:07.996Z,63.85
2018-02-18T15:07:38.858Z,67.19
2018-02-18T15:10:10.721Z,70.74
2018-02-18T15:12:41.562Z,71.99
2018-02-18T15:15:12.387Z,73.32
2018-02-18T15:17:43.332Z,72.78
2018-02-18T15:20:14.173Z,73.26
2018-02-18T15:22:45.022Z,73.65
2018-02-18T15:25:15.842Z,74.81
2018-02-18T15:27:46.723Z,75.44
2018-02-18T15:30:17.569Z,76.61
2018-02-18T15:32:48.426Z,76.11
2018-02-18T15:35:19.257Z,76.55
2018-02-18T15:37:50.082Z,75.01
2018-02-18T15:40:21.069Z,76.21
2018-02-18T15:42:51.922Z,74.52
2018-02-18T15:45:22.760Z,76.57
2018-02-18T15:47:53.676Z,77.09
2018-02-18T15:50:24.557Z,77.76
2018-02-18T15:52:55.478Z,78.27
2018-02-18T15:55:26.336Z,79.24
2018-02-18T15:57:57.220Z,80.06
2018-02-18T16:00:28.110Z,80.03
2018-02-18T16:02:58.999Z,79.03
2018-02-18T16:05:29.925Z,79.80
2018-02-18T16:08:00.806Z,80.05
2018-02-18T16:10:31.660Z,80.18
2018-02-18T16:13:02.569Z,80.74
2018-02-18T16:15:33.435Z,81.03
2018-02-18T16:18:04.278Z,80.97
2018-02-18T16:20:35.202Z,81.53
2018-02-18T16:23:06.039Z,81.11
2018-02-18T16:25:36.857Z,81.35
2018-02-18T16:28:07.653Z,82.15
2018-02-18T16:30:38.526Z,82.97
2018-02-18T16:33:09.535Z,82.84
2018-02-18T16:35:40.409Z,82.92
2018-02-18T16:38:11.299Z,83.14
2018-02-18T16:40:42.230Z,84.14
2018-02-18T16:43:13.132Z,84.21
2018-02-18T16:45:43.920Z,84.31
2018-02-18T16:48:15.782Z,84.31
2018-02-18T16:50:46.643Z,83.99
2018-02-18T16:53:17.520Z,84.56
2018-02-18T16:55:48.392Z,85.50
2018-02-18T16:58:19.264Z,85.92
2018-02-18T17:00:50.104Z,85.23
2018-02-18T17:03:20.991Z,85.02
2018-02-18T17:05:51.862Z,84.78
2018-02-18T17:08:22.714Z,85.48
2018-02-18T17:10:53.726Z,85.49
2018-02-18T17:13:24.580Z,86.03
2018-02-18T17:15:55.484Z,86.51
2018-02-18T17:18:26.356Z,86.00
2018-02-18T17:20:59.217Z,86.08
2018-02-18T17:23:30.178Z,85.85
2018-02-18T17:26:01.092Z,86.52
2018-02-18T17:28:31.926Z,86.33
2018-02-18T17:31:02.828Z,86.13
2018-02-18T17:33:33.661Z,86.25
2018-02-18T17:36:04.573Z,86.36
2018-02-18T17:38:35.443Z,85.84
2018-02-18T17:41:06.318Z,86.20
2018-02-18T17:43:37.178Z,86.65
2018-02-18T17:46:08.050Z,86.56
2018-02-18T17:48:38.951Z,87.54
2018-02-18T17:51:09.859Z,87.29
2018-02-18T17:53:40.763Z,86.71
2018-02-18T17:56:11.677Z,86.35
2018-02-18T17:58:42.661Z,85.31
2018-02-18T18:01:13.537Z,86.26
2018-02-18T18:03:44.396Z,84.61
2018-02-18T18:06:15.278Z,84.84
2018-02-18T18:08:46.196Z,85.23
2018-02-18T18:11:17.084Z,85.72
2018-02-18T18:13:47.937Z,84.36
2018-02-18T18:16:18.779Z,84.49
2018-02-18T18:18:49.606Z,83.83
2018-02-18T18:21:20.459Z,81.55
2018-02-18T18:23:51.292Z,80.54
2018-02-18T18:26:22.192Z,82.17
2018-02-18T18:28:53.051Z,81.80
2018-02-18T18:31:23.967Z,81.71
2018-02-18T18:33:54.803Z,79.08
2018-02-18T18:36:25.678Z,78.30
2018-02-18T18:38:56.538Z,78.37
2018-02-18T18:44:37.701Z,79.46
2018-02-18T18:47:09.665Z,79.29
2018-02-18T18:52:18.162Z,77.17
2018-02-18T18:54:53.633Z,78.23
2018-02-18T18:57:24.535Z,76.66
2018-02-18T18:59:55.397Z,77.10
2018-02-18T19:02:26.301Z,78.73
2018-02-18T19:04:57.286Z,79.68
2018-02-18T19:07:39.185Z,80.17
2018-02-18T19:10:14.980Z,80.78
2018-02-18T19:12:46.939Z,80.02
2018-02-18T19:15:17.838Z,83.67
2018-02-18T19:17:50.741Z,83.71
2018-02-18T19:20:21.818Z,82.95
2018-02-18T19:22:52.913Z,81.93
2018-02-18T19:25:29.099Z,83.86
2018-02-18T19:28:00.350Z,83.91
2018-02-18T19:30:31.598Z,83.47
2018-02-18T19:33:02.970Z,82.53
2018-02-18T19:35:34.057Z,83.23
2018-02-18T19:38:05.265Z,84.38
2018-02-18T19:40:36.425Z,85.24
2018-02-18T19:43:07.421Z,86.08
2018-02-18T19:45:38.319Z,84.95
2018-02-18T19:48:09.181Z,85.35
2018-02-18T19:50:40.174Z,85.68
2018-02-18T19:53:13.063Z,85.45
2018-02-18T19:55:43.941Z,85.39
2018-02-18T19:58:14.794Z,86.35
2018-02-18T20:00:45.675Z,86.76
2018-02-18T20:03:16.494Z,88.14
2018-02-18T20:05:47.457Z,87.65
2018-02-18T20:08:18.266Z,87.85
2018-02-18T20:10:49.098Z,87.88
2018-02-18T20:13:19.911Z,89.15
2018-02-18T20:15:50.839Z,88.85
2018-02-18T20:18:21.882Z,90.15
2018-02-18T20:20:52.914Z,89.57
2018-02-18T20:23:23.830Z,90.41
2018-02-18T20:25:54.873Z,90.86
2018-02-18T20:28:26.292Z,89.80
2018-02-18T20:30:57.228Z,89.67
2018-02-18T20:33:28.115Z,90.27
2018-02-18T20:36:07.455Z,90.55
2018-02-18T20:38:38.382Z,91.87
2018-02-18T20:41:09.236Z,92.07
2018-02-18T20:43:40.185Z,92.34
2018-02-18T20:46:11.201Z,92.41
2018-02-18T20:48:42.184Z,92.79
2018-02-18T20:51:13.170Z,92.64
2018-02-18T20:53:44.223Z,92.58
2018-02-18T20:56:15.341Z,93.04
2018-02-18T20:58:46.418Z,93.13
2018-02-18T21:01:17.558Z,93.24
2018-02-18T21:03:48.711Z,93.75
2018-02-18T21:06:19.993Z,94.13
2018-02-18T21:08:51.058Z,94.07
2018-02-18T21:11:22.038Z,94.19
2018-02-18T21:13:53.163Z,94.29
2018-02-18T21:16:24.275Z,94.33
2018-02-18T21:18:55.485Z,94.08
2018-02-18T21:21:26.529Z,94.03
2018-02-18T21:23:57.644Z,94.22
2018-02-18T21:26:28.864Z,94.05
2018-02-18T21:29:00.050Z,93.76
2018-02-18T21:31:31.165Z,93.54
2018-02-18T21:34:05.245Z,93.07
2018-02-18T21:36:36.698Z,93.14
2018-02-18T21:39:09.137Z,93.11
2018-02-18T21:41:40.517Z,93.15
2018-02-18T21:44:11.653Z,92.95
2018-02-18T21:46:43.276Z,92.89
2018-02-18T21:49:14.463Z,93.01
2018-02-18T21:51:45.816Z,93.46
2018-02-18T21:54:16.969Z,93.65
2018-02-18T21:56:48.087Z,93.63
2018-02-18T21:59:20.187Z,93.65
2018-02-18T22:01:51.420Z,92.86
2018-02-18T22:04:22.742Z,93.09
2018-02-18T22:06:53.835Z,93.26
2018-02-18T22:09:24.828Z,92.93
2018-02-18T22:12:00.010Z,92.55
2018-02-18T22:14:31.150Z,92.82
2018-02-18T22:17:02.209Z,92.69
2018-02-18T22:19:33.387Z,93.23
2018-02-18T22:22:04.355Z,93.34
2018-02-18T22:24:35.373Z,93.21
2018-02-18T22:27:07.246Z,93.08
2018-02-18T22:29:38.287Z,92.76
2018-02-18T22:32:09.216Z,92.43
2018-02-18T22:34:40.272Z,92.51
2018-02-18T22:37:11.266Z,92.68
2018-02-18T22:39:42.263Z,93.14
2018-02-18T22:42:13.301Z,93.76
2018-02-18T22:44:44.263Z,94.09
2018-02-18T22:47:15.389Z,94.10
2018-02-18T22:49:46.902Z,94.31
2018-02-18T22:52:17.855Z,94.74
2018-02-18T22:54:48.862Z,95.03
2018-02-18T22:57:19.840Z,95.14
2018-02-18T22:59:50.853Z,95.14
2018-02-18T23:02:21.842Z,95.19
2018-02-18T23:05:00.995Z,95.15
2018-02-18T23:07:32.070Z,95.19
2018-02-18T23:10:03.084Z,94.88
2018-02-18T23:12:34.095Z,94.58
2018-02-18T23:15:05.289Z,94.60
2018-02-18T23:17:36.405Z,94.48
2018-02-18T23:20:07.597Z,94.58
2018-02-18T23:22:38.776Z,94.38
2018-02-18T23:25:10.296Z,94.57
2018-02-18T23:27:42.047Z,94.64
2018-02-18T23:30:13.368Z,94.78
2018-02-18T23:32:45.014Z,94.88
2018-02-18T23:35:16.295Z,94.79
2018-02-18T23:37:47.760Z,94.67
2018-02-18T23:40:20.256Z,94.63
2018-02-18T23:42:51.656Z,94.58
2018-02-18T23:45:23.050Z,94.62
2018-02-18T23:47:54.731Z,94.72
2018-02-18T23:50:27.914Z,94.57
2018-02-18T23:52:59.056Z,94.59
2018-02-18T23:55:30.093Z,94.61
2018-02-18T23:58:01.301Z,94.58
